createdAt,value
2017-10-09T00:00:18.273Z,955.76
2017-10-09T00:01:18.221Z,955.73
2017-10-09T00:02:18.253Z,955.78
2017-10-09T00:03:18.257Z,955.74
2017-10-09T00:04:18.175Z,955.8
2017-10-09T00:05:18.241Z,955.81
2017-10-09T00:06:18.182Z,955.77
2017-10-09T00:07:18.206Z,955.8
2017-10-09T00:08:18.132Z,955.83
2017-10-09T00:09:18.146Z,955.79
2017-10-09T00:10:18.130Z,955.81
2017-10-09T00:11:18.200Z,955.77
2017-10-09T00:12:18.118Z,955.81
2017-10-09T00:13:18.083Z,955.8
2017-10-09T00:14:18.074Z,955.84
2017-10-09T00:15:18.057Z,955.82
2017-10-09T00:16:18.018Z,955.83
2017-10-09T00:17:18.086Z,955.79
2017-10-09T00:18:18.040Z,955.8
2017-10-09T00:19:17.983Z,955.77
2017-10-09T00:20:17.961Z,955.76
2017-10-09T00:21:17.967Z,955.81
2017-10-09T00:22:17.952Z,955.8
2017-10-09T00:23:17.946Z,955.86
2017-10-09T00:24:17.971Z,955.82
2017-10-09T00:25:17.899Z,955.83
2017-10-09T00:26:17.886Z,955.88
2017-10-09T00:27:17.874Z,955.85
2017-10-09T00:28:17.861Z,955.85
2017-10-09T00:29:17.874Z,955.84
2017-10-09T00:30:17.836Z,955.86
2017-10-09T00:31:17.823Z,955.83
2017-10-09T00:32:17.810Z,955.86
2017-10-09T00:33:17.798Z,955.84
2017-10-09T00:34:17.786Z,955.86
2017-10-09T00:35:17.792Z,955.84
2017-10-09T00:36:17.762Z,955.83
2017-10-09T00:37:17.748Z,955.86
2017-10-09T00:38:17.736Z,955.86
2017-10-09T00:39:17.722Z,955.8
2017-10-09T00:40:17.730Z,955.83
2017-10-09T00:41:17.700Z,955.82
2017-10-09T00:42:17.685Z,955.82
2017-10-09T00:43:17.673Z,955.76
2017-10-09T00:44:17.662Z,955.79
2017-10-09T00:45:17.648Z,955.77
2017-10-09T00:46:17.642Z,955.77
2017-10-09T00:47:17.623Z,955.79
2017-10-09T00:48:17.610Z,955.76
2017-10-09T00:49:17.599Z,955.74
2017-10-09T00:50:17.586Z,955.76
2017-10-09T00:51:17.574Z,955.7
2017-10-09T00:52:17.561Z,955.73
2017-10-09T00:53:17.547Z,955.75
2017-10-09T00:54:17.536Z,955.73
2017-10-09T00:55:17.524Z,955.7
2017-10-09T00:56:17.510Z,955.72
2017-10-09T00:57:17.496Z,955.72
2017-10-09T00:58:17.483Z,955.7
2017-10-09T00:59:17.614Z,955.7
2017-10-09T01:00:17.499Z,955.69
2017-10-09T01:01:17.513Z,955.7
2017-10-09T01:02:17.435Z,955.7
2017-10-09T01:03:17.422Z,955.67
2017-10-09T01:04:17.410Z,955.69
2017-10-09T01:05:17.398Z,955.68
2017-10-09T01:06:17.386Z,955.64
2017-10-09T01:07:17.382Z,955.64
2017-10-09T01:08:17.359Z,955.65
2017-10-09T01:09:17.346Z,955.62
2017-10-09T01:10:17.334Z,955.63
2017-10-09T01:11:17.320Z,955.57
2017-10-09T01:12:17.309Z,955.56
2017-10-09T01:13:17.316Z,955.57
2017-10-09T01:14:17.285Z,955.57
2017-10-09T01:15:17.270Z,955.54
2017-10-09T01:16:17.259Z,955.56
2017-10-09T01:17:17.245Z,955.53
2017-10-09T01:18:17.233Z,955.52
2017-10-09T01:19:17.220Z,955.56
2017-10-09T01:20:17.207Z,955.56
2017-10-09T01:21:17.197Z,955.56
2017-10-09T01:22:17.182Z,955.56
2017-10-09T01:23:17.170Z,955.56
2017-10-09T01:24:17.157Z,955.61
2017-10-09T01:25:17.152Z,955.6
2017-10-09T01:26:17.132Z,955.57
2017-10-09T01:27:17.127Z,955.58
2017-10-09T01:28:17.108Z,955.61
2017-10-09T01:29:17.095Z,955.58
2017-10-09T01:30:17.089Z,955.6
2017-10-09T01:31:17.068Z,955.63
2017-10-09T01:32:17.056Z,955.61
2017-10-09T01:33:17.044Z,955.62
2017-10-09T01:34:17.030Z,955.6
2017-10-09T01:35:17.035Z,955.57
2017-10-09T01:36:17.007Z,955.62
2017-10-09T01:37:16.992Z,955.6
2017-10-09T01:38:16.980Z,955.6
2017-10-09T01:39:16.968Z,955.6
2017-10-09T01:40:16.967Z,955.63
2017-10-09T01:41:16.941Z,955.65
2017-10-09T01:42:16.930Z,955.61
2017-10-09T01:43:16.917Z,955.64
2017-10-09T01:44:16.905Z,955.66
2017-10-09T01:45:16.892Z,955.67
2017-10-09T01:46:16.891Z,955.68
2017-10-09T01:47:16.869Z,955.62
2017-10-09T01:48:16.855Z,955.65
2017-10-09T01:49:16.842Z,955.64
2017-10-09T01:50:16.832Z,955.64
2017-10-09T01:51:16.817Z,955.72
2017-10-09T01:52:16.804Z,955.72
2017-10-09T01:53:16.793Z,955.72
2017-10-09T01:54:16.779Z,955.67
2017-10-09T01:55:16.766Z,955.71
2017-10-09T01:56:16.753Z,955.66
2017-10-09T01:57:16.741Z,955.67
2017-10-09T01:58:16.729Z,955.66
2017-10-09T01:59:16.716Z,955.66
2017-10-09T02:00:16.703Z,955.68
2017-10-09T02:01:16.692Z,955.66
2017-10-09T02:02:16.678Z,955.65
2017-10-09T02:03:16.666Z,955.68
2017-10-09T02:04:16.670Z,955.71
2017-10-09T02:05:16.640Z,955.68
2017-10-09T02:06:16.628Z,955.66
2017-10-09T02:07:16.616Z,955.69
2017-10-09T02:08:16.626Z,955.67
2017-10-09T02:09:16.590Z,955.71
2017-10-09T02:10:16.577Z,955.66
2017-10-09T02:11:16.564Z,955.69
2017-10-09T02:12:16.552Z,955.73
2017-10-09T02:13:16.540Z,955.7
2017-10-09T02:14:16.548Z,955.69
2017-10-09T02:15:16.514Z,955.69
2017-10-09T02:16:16.502Z,955.69
2017-10-09T02:17:16.488Z,955.67
2017-10-09T02:18:16.476Z,955.66
2017-10-09T02:19:16.464Z,955.64
2017-10-09T02:20:16.452Z,955.64
2017-10-09T02:21:16.440Z,955.7
2017-10-09T02:22:16.425Z,955.67
2017-10-09T02:23:16.414Z,955.68
2017-10-09T02:24:16.401Z,955.7
2017-10-09T02:25:16.388Z,955.71
2017-10-09T02:26:16.376Z,955.71
2017-10-09T02:27:16.363Z,955.69
2017-10-09T02:28:16.359Z,955.72
2017-10-09T02:29:16.337Z,955.68
2017-10-09T02:30:16.325Z,955.7
2017-10-09T02:31:16.314Z,955.73
2017-10-09T02:32:16.299Z,955.77
2017-10-09T02:33:16.286Z,955.73
2017-10-09T02:34:16.275Z,955.71
2017-10-09T02:35:16.267Z,955.76
2017-10-09T02:36:16.250Z,955.73
2017-10-09T02:37:16.238Z,955.77
2017-10-09T02:38:16.225Z,955.78
2017-10-09T02:39:16.215Z,955.77
2017-10-09T02:40:16.200Z,955.8
2017-10-09T02:41:16.188Z,955.8
2017-10-09T02:42:16.174Z,955.77
2017-10-09T02:43:16.162Z,955.79
2017-10-09T02:44:16.160Z,955.78
2017-10-09T02:45:16.138Z,955.79
2017-10-09T02:46:16.123Z,955.76
2017-10-09T02:47:16.111Z,955.78
2017-10-09T02:48:16.099Z,955.79
2017-10-09T02:49:16.085Z,955.83
2017-10-09T02:50:16.072Z,955.82
2017-10-09T02:51:16.061Z,955.82
2017-10-09T02:52:16.048Z,955.81
2017-10-09T02:53:16.036Z,955.82
2017-10-09T02:54:16.023Z,955.82
2017-10-09T02:55:16.026Z,955.83
2017-10-09T02:56:16.047Z,955.85
2017-10-09T02:57:15.983Z,955.84
2017-10-09T02:58:15.973Z,955.83
2017-10-09T02:59:15.959Z,955.82
2017-10-09T03:00:15.948Z,955.84
2017-10-09T03:01:15.933Z,955.84
2017-10-09T03:02:15.982Z,955.84
2017-10-09T03:03:15.909Z,955.89
2017-10-09T03:04:15.896Z,955.84
2017-10-09T03:05:15.882Z,955.88
2017-10-09T03:06:15.871Z,955.85
2017-10-09T03:07:15.859Z,955.84
2017-10-09T03:08:15.844Z,955.8
2017-10-09T03:09:15.832Z,955.81
2017-10-09T03:10:15.821Z,955.81
2017-10-09T03:11:15.807Z,955.84
2017-10-09T03:12:15.794Z,955.82
2017-10-09T03:13:15.782Z,955.84
2017-10-09T03:14:15.770Z,955.85
2017-10-09T03:15:15.757Z,955.91
2017-10-09T03:16:15.743Z,955.94
2017-10-09T03:17:15.730Z,955.94
2017-10-09T03:18:15.719Z,955.95
2017-10-09T03:19:15.706Z,955.92
2017-10-09T03:20:15.710Z,955.91
2017-10-09T03:21:15.680Z,955.92
2017-10-09T03:22:15.668Z,955.97
2017-10-09T03:23:15.654Z,955.96
2017-10-09T03:24:15.654Z,955.92
2017-10-09T03:25:15.629Z,955.94
2017-10-09T03:26:15.618Z,955.99
2017-10-09T03:27:15.607Z,956.02
2017-10-09T03:28:15.590Z,955.98
2017-10-09T03:29:15.578Z,956
2017-10-09T03:30:15.566Z,956
2017-10-09T03:31:15.568Z,956.01
2017-10-09T03:32:15.543Z,956.01
2017-10-09T03:33:15.527Z,955.99
2017-10-09T03:34:15.513Z,956
2017-10-09T03:35:15.509Z,955.99
2017-10-09T03:36:15.509Z,955.99
2017-10-09T03:37:15.476Z,955.97
2017-10-09T03:38:15.464Z,955.96
2017-10-09T03:39:15.450Z,956
2017-10-09T03:40:15.441Z,956
2017-10-09T03:41:15.425Z,956.01
2017-10-09T03:42:15.412Z,955.99
2017-10-09T03:43:15.407Z,956.07
2017-10-09T03:44:15.387Z,956.08
2017-10-09T03:45:15.374Z,956.05
2017-10-09T03:46:15.362Z,956.08
2017-10-09T03:47:15.349Z,956.02
2017-10-09T03:48:15.336Z,956.11
2017-10-09T03:49:15.322Z,956.09
2017-10-09T03:50:15.309Z,956.07
2017-10-09T03:51:15.297Z,956.1
2017-10-09T03:52:15.283Z,956.1
2017-10-09T03:53:15.270Z,956.08
2017-10-09T03:54:15.259Z,956.08
2017-10-09T03:55:15.244Z,956.09
2017-10-09T03:56:15.233Z,956.1
2017-10-09T03:57:15.318Z,956.1
2017-10-09T03:58:15.208Z,956.08
2017-10-09T03:59:15.196Z,956.1
2017-10-09T04:00:15.181Z,956.08
2017-10-09T04:01:15.168Z,956.09
2017-10-09T04:02:15.156Z,956.09
2017-10-09T04:03:15.142Z,956.11
2017-10-09T04:04:15.130Z,956.13
2017-10-09T04:05:15.117Z,956.13
2017-10-09T04:06:15.104Z,956.15
2017-10-09T04:07:15.094Z,956.12
2017-10-09T04:08:15.078Z,956.12
2017-10-09T04:09:15.066Z,956.1
2017-10-09T04:10:15.054Z,956.1
2017-10-09T04:11:15.041Z,956.12
2017-10-09T04:12:15.029Z,956.15
2017-10-09T04:13:15.027Z,956.09
2017-10-09T04:14:15.008Z,956.11
2017-10-09T04:15:14.990Z,956.13
2017-10-09T04:16:14.976Z,956.12
2017-10-09T04:17:14.964Z,956.15
2017-10-09T04:18:14.950Z,956.11
2017-10-09T04:19:14.938Z,956.13
2017-10-09T04:20:14.925Z,956.14
2017-10-09T04:21:14.912Z,956.09
2017-10-09T04:22:14.899Z,956.13
2017-10-09T04:23:14.887Z,956.11
2017-10-09T04:24:14.874Z,956.12
2017-10-09T04:25:14.863Z,956.08
2017-10-09T04:26:14.859Z,956.1
2017-10-09T04:27:14.838Z,956.1
2017-10-09T04:28:14.823Z,956.06
2017-10-09T04:29:14.808Z,956.06
2017-10-09T04:30:14.796Z,956.04
2017-10-09T04:31:14.783Z,956.06
2017-10-09T04:32:14.769Z,956.04
2017-10-09T04:33:14.771Z,956.04
2017-10-09T04:34:14.744Z,956.02
2017-10-09T04:35:14.750Z,956.01
2017-10-09T04:36:14.718Z,956.02
2017-10-09T04:37:14.705Z,956
2017-10-09T04:38:14.695Z,956.05
2017-10-09T04:39:14.679Z,956.06
2017-10-09T04:40:14.665Z,956.02
2017-10-09T04:41:14.653Z,956.06
2017-10-09T04:42:14.653Z,956.05
2017-10-09T04:43:14.626Z,956.09
2017-10-09T04:44:14.613Z,956.07
2017-10-09T04:45:14.601Z,956.11
2017-10-09T04:46:14.587Z,956.12
2017-10-09T04:47:14.574Z,956.12
2017-10-09T04:48:14.561Z,956.11
2017-10-09T04:49:14.548Z,956.16
2017-10-09T04:50:14.535Z,956.13
2017-10-09T04:51:14.522Z,956.17
2017-10-09T04:52:14.542Z,956.16
2017-10-09T04:53:14.496Z,956.12
2017-10-09T04:54:14.482Z,956.16
2017-10-09T04:55:14.469Z,956.14
2017-10-09T04:56:14.457Z,956.12
2017-10-09T04:57:14.445Z,956.11
2017-10-09T04:58:14.431Z,956.1
2017-10-09T04:59:14.418Z,956.07
2017-10-09T05:00:14.404Z,956.11
2017-10-09T05:01:14.392Z,956.06
2017-10-09T05:02:14.390Z,956.08
2017-10-09T05:03:14.366Z,956.06
2017-10-09T05:04:14.353Z,956.1
2017-10-09T05:05:14.338Z,956.11
2017-10-09T05:06:14.326Z,956.11
2017-10-09T05:07:14.316Z,956.11
2017-10-09T05:08:14.301Z,956.15
2017-10-09T05:09:14.287Z,956.13
2017-10-09T05:10:14.275Z,956.14
2017-10-09T05:11:14.283Z,956.13
2017-10-09T05:12:14.250Z,956.15
2017-10-09T05:13:14.236Z,956.13
2017-10-09T05:14:14.223Z,956.14
2017-10-09T05:15:14.212Z,956.16
2017-10-09T05:16:14.199Z,956.14
2017-10-09T05:17:14.183Z,956.14
2017-10-09T05:18:14.180Z,956.16
2017-10-09T05:19:14.157Z,956.13
2017-10-09T05:20:14.145Z,956.14
2017-10-09T05:21:14.132Z,956.18
2017-10-09T05:22:14.118Z,956.22
2017-10-09T05:23:14.106Z,956.24
2017-10-09T05:24:14.094Z,956.2
2017-10-09T05:25:14.080Z,956.21
2017-10-09T05:26:14.067Z,956.2
2017-10-09T05:27:14.055Z,956.23
2017-10-09T05:28:14.041Z,956.2
2017-10-09T05:29:14.029Z,956.22
2017-10-09T05:30:14.016Z,956.2
2017-10-09T05:31:14.002Z,956.19
2017-10-09T05:32:13.990Z,956.23
2017-10-09T05:33:13.977Z,956.19
2017-10-09T05:34:13.965Z,956.18
2017-10-09T05:35:13.952Z,956.22
2017-10-09T05:36:13.940Z,956.18
2017-10-09T05:37:13.929Z,956.16
2017-10-09T05:38:13.913Z,956.2
2017-10-09T05:39:13.901Z,956.19
2017-10-09T05:40:13.888Z,956.16
2017-10-09T05:41:13.875Z,956.15
2017-10-09T05:42:13.862Z,956.16
2017-10-09T05:43:13.851Z,956.12
2017-10-09T05:44:13.842Z,956.17
2017-10-09T05:45:13.825Z,956.13
2017-10-09T05:46:13.813Z,956.1
2017-10-09T05:47:13.801Z,956.11
2017-10-09T05:48:13.788Z,956.1
2017-10-09T05:49:13.775Z,956.16
2017-10-09T05:50:13.762Z,956.15
2017-10-09T05:51:13.749Z,956.11
2017-10-09T05:52:13.743Z,956.1
2017-10-09T05:53:13.723Z,956.08
2017-10-09T05:54:13.724Z,956.03
2017-10-09T05:55:13.698Z,956.09
2017-10-09T05:56:13.704Z,956.11
2017-10-09T05:57:13.673Z,956.11
2017-10-09T05:58:13.661Z,956.08
2017-10-09T05:59:13.650Z,956.1
2017-10-09T06:00:13.654Z,956.11
2017-10-09T06:01:13.624Z,956.14
2017-10-09T06:02:13.611Z,956.15
2017-10-09T06:03:13.598Z,956.11
2017-10-09T06:04:13.585Z,956.08
2017-10-09T06:05:13.573Z,956.06
2017-10-09T06:06:13.562Z,956.13
2017-10-09T06:07:13.548Z,956.12
2017-10-09T06:08:13.536Z,956.13
2017-10-09T06:09:13.524Z,956.13
2017-10-09T06:10:13.516Z,956.11
2017-10-09T06:11:13.499Z,956.08
2017-10-09T06:12:13.494Z,956.07
2017-10-09T06:13:13.475Z,956.1
2017-10-09T06:14:13.463Z,956.11
2017-10-09T06:15:13.450Z,956.12
2017-10-09T06:16:13.438Z,956.13
2017-10-09T06:17:13.426Z,956.19
2017-10-09T06:18:13.416Z,956.15
2017-10-09T06:19:13.402Z,956.14
2017-10-09T06:20:13.389Z,956.19
2017-10-09T06:21:13.376Z,956.17
2017-10-09T06:22:13.364Z,956.16
2017-10-09T06:23:13.352Z,956.14
2017-10-09T06:24:13.339Z,956.16
2017-10-09T06:25:13.328Z,956.19
2017-10-09T06:26:13.315Z,956.23
2017-10-09T06:27:13.310Z,956.16
2017-10-09T06:28:13.291Z,956.18
2017-10-09T06:29:13.278Z,956.23
2017-10-09T06:30:13.267Z,956.16
2017-10-09T06:31:13.254Z,956.21
2017-10-09T06:32:13.244Z,956.21
2017-10-09T06:33:13.232Z,956.18
2017-10-09T06:34:13.218Z,956.2
2017-10-09T06:35:13.223Z,956.17
2017-10-09T06:36:13.194Z,956.2
2017-10-09T06:37:13.182Z,956.23
2017-10-09T06:38:13.174Z,956.23
2017-10-09T06:39:13.159Z,956.24
2017-10-09T06:40:13.161Z,956.25
2017-10-09T06:41:13.146Z,956.25
2017-10-09T06:42:13.124Z,956.24
2017-10-09T06:43:13.112Z,956.23
2017-10-09T06:44:13.099Z,956.28
2017-10-09T06:45:13.089Z,956.25
2017-10-09T06:46:13.076Z,956.2
2017-10-09T06:47:13.064Z,956.25
2017-10-09T06:48:13.050Z,956.3
2017-10-09T06:49:13.041Z,956.21
2017-10-09T06:50:13.027Z,956.21
2017-10-09T06:51:13.014Z,956.19
2017-10-09T06:52:13.004Z,956.22
2017-10-09T06:53:12.992Z,956.21
2017-10-09T06:54:12.980Z,956.15
2017-10-09T06:55:12.967Z,956.2
2017-10-09T06:56:12.956Z,956.19
2017-10-09T06:57:12.944Z,956.16
2017-10-09T06:58:12.933Z,956.17
2017-10-09T06:59:12.921Z,956.18
2017-10-09T07:00:12.909Z,956.2
2017-10-09T07:01:12.897Z,956.21
2017-10-09T07:02:12.885Z,956.17
2017-10-09T07:03:12.873Z,956.21
2017-10-09T07:04:12.883Z,956.23
2017-10-09T07:05:12.853Z,956.2
2017-10-09T07:06:12.838Z,956.19
2017-10-09T07:07:12.828Z,956.2
2017-10-09T07:08:12.816Z,956.16
2017-10-09T07:09:12.821Z,956.22
2017-10-09T07:10:12.792Z,956.15
2017-10-09T07:11:12.783Z,956.18
2017-10-09T07:12:12.769Z,956.21
2017-10-09T07:13:12.757Z,956.24
2017-10-09T07:14:12.746Z,956.21
2017-10-09T07:15:12.735Z,956.21
2017-10-09T07:16:12.724Z,956.2
2017-10-09T07:17:12.755Z,956.19
2017-10-09T07:18:12.700Z,956.22
2017-10-09T07:19:12.689Z,956.24
2017-10-09T07:20:12.678Z,956.25
2017-10-09T07:21:12.684Z,956.22
2017-10-09T07:22:12.658Z,956.24
2017-10-09T07:23:12.645Z,956.28
2017-10-09T07:24:12.644Z,956.28
2017-10-09T07:25:12.622Z,956.31
2017-10-09T07:26:12.611Z,956.3
2017-10-09T07:27:12.604Z,956.3
2017-10-09T07:28:12.589Z,956.32
2017-10-09T07:29:12.578Z,956.32
2017-10-09T07:30:12.567Z,956.34
2017-10-09T07:31:12.555Z,956.38
2017-10-09T07:32:12.543Z,956.38
2017-10-09T07:33:12.533Z,956.36
2017-10-09T07:34:12.522Z,956.37
2017-10-09T07:35:12.509Z,956.37
2017-10-09T07:36:12.498Z,956.39
2017-10-09T07:37:12.510Z,956.34
2017-10-09T07:38:12.479Z,956.36
2017-10-09T07:39:12.466Z,956.34
2017-10-09T07:40:12.454Z,956.34
2017-10-09T07:41:12.443Z,956.35
2017-10-09T07:42:12.433Z,956.36
2017-10-09T07:43:12.420Z,956.37
2017-10-09T07:44:12.409Z,956.34
2017-10-09T07:45:12.398Z,956.39
2017-10-09T07:46:12.405Z,956.32
2017-10-09T07:47:12.408Z,956.31
2017-10-09T07:48:12.364Z,956.33
2017-10-09T07:49:12.353Z,956.32
2017-10-09T07:50:12.341Z,956.33
2017-10-09T07:51:12.330Z,956.34
2017-10-09T07:52:12.364Z,956.35
2017-10-09T07:53:12.307Z,956.36
2017-10-09T07:54:12.298Z,956.39
2017-10-09T07:55:12.284Z,956.38
2017-10-09T07:56:12.274Z,956.4
2017-10-09T07:57:12.261Z,956.38
2017-10-09T07:58:12.252Z,956.35
2017-10-09T07:59:12.240Z,956.36
2017-10-09T08:00:12.229Z,956.37
2017-10-09T08:01:12.218Z,956.38
2017-10-09T08:02:12.206Z,956.42
2017-10-09T08:03:12.216Z,956.4
2017-10-09T08:04:12.184Z,956.43
2017-10-09T08:05:12.172Z,956.45
2017-10-09T08:06:12.163Z,956.46
2017-10-09T08:07:12.151Z,956.46
2017-10-09T08:08:12.140Z,956.47
2017-10-09T08:09:12.171Z,956.44
2017-10-09T08:10:12.118Z,956.46
2017-10-09T08:11:12.107Z,956.47
2017-10-09T08:12:12.107Z,956.46
2017-10-09T08:13:12.085Z,956.47
2017-10-09T08:14:12.074Z,956.49
2017-10-09T08:15:12.084Z,956.47
2017-10-09T08:16:12.054Z,956.43
2017-10-09T08:17:12.042Z,956.45
2017-10-09T08:18:12.032Z,956.46
2017-10-09T08:19:12.022Z,956.45
2017-10-09T08:20:12.011Z,956.46
2017-10-09T08:21:12.000Z,956.43
2017-10-09T08:22:11.990Z,956.52
2017-10-09T08:23:11.979Z,956.5
2017-10-09T08:24:11.968Z,956.47
2017-10-09T08:25:11.959Z,956.5
2017-10-09T08:26:11.948Z,956.51
2017-10-09T08:27:11.937Z,956.53
2017-10-09T08:28:11.929Z,956.49
2017-10-09T08:29:11.919Z,956.49
2017-10-09T08:30:11.907Z,956.48
2017-10-09T08:31:11.897Z,956.51
2017-10-09T08:32:11.887Z,956.49
2017-10-09T08:33:11.894Z,956.43
2017-10-09T08:34:11.867Z,956.43
2017-10-09T08:35:11.857Z,956.43
2017-10-09T08:36:11.847Z,956.43
2017-10-09T08:37:11.836Z,956.39
2017-10-09T08:38:11.826Z,956.39
2017-10-09T08:39:11.816Z,956.4
2017-10-09T08:40:11.819Z,956.39
2017-10-09T08:41:11.795Z,956.43
2017-10-09T08:42:11.785Z,956.44
2017-10-09T08:43:11.776Z,956.42
2017-10-09T08:44:11.766Z,956.44
2017-10-09T08:45:11.757Z,956.43
2017-10-09T08:46:11.744Z,956.43
2017-10-09T08:47:11.734Z,956.42
2017-10-09T08:48:11.728Z,956.42
2017-10-09T08:49:11.714Z,956.46
2017-10-09T08:50:11.704Z,956.42
2017-10-09T08:51:11.694Z,956.44
2017-10-09T08:52:11.688Z,956.44
2017-10-09T08:53:11.674Z,956.46
2017-10-09T08:54:11.752Z,956.45
2017-10-09T08:55:11.655Z,956.42
2017-10-09T08:56:11.645Z,956.45
2017-10-09T08:57:11.637Z,956.43
2017-10-09T08:58:11.627Z,956.47
2017-10-09T08:59:11.617Z,956.48
2017-10-09T09:00:11.606Z,956.46
2017-10-09T09:01:11.598Z,956.48
2017-10-09T09:02:11.589Z,956.46
2017-10-09T09:03:11.577Z,956.5
2017-10-09T09:04:11.572Z,956.53
2017-10-09T09:05:11.560Z,956.5
2017-10-09T09:06:11.552Z,956.44
2017-10-09T09:07:11.547Z,956.49
2017-10-09T09:08:11.530Z,956.45
2017-10-09T09:09:11.519Z,956.43
2017-10-09T09:10:11.509Z,956.46
2017-10-09T09:11:11.501Z,956.44
2017-10-09T09:12:11.490Z,956.42
2017-10-09T09:13:11.482Z,956.46
2017-10-09T09:14:11.471Z,956.48
2017-10-09T09:15:11.479Z,956.43
2017-10-09T09:16:11.454Z,956.4
2017-10-09T09:17:11.443Z,956.44
2017-10-09T09:18:11.433Z,956.42
2017-10-09T09:19:11.444Z,956.43
2017-10-09T09:20:11.416Z,956.46
2017-10-09T09:21:11.407Z,956.44
2017-10-09T09:22:11.396Z,956.48
2017-10-09T09:23:11.408Z,956.49
2017-10-09T09:24:11.400Z,956.52
2017-10-09T09:25:11.370Z,956.48
2017-10-09T09:26:11.364Z,956.5
2017-10-09T09:27:11.351Z,956.48
2017-10-09T09:28:11.341Z,956.47
2017-10-09T09:29:11.333Z,956.52
2017-10-09T09:30:11.328Z,956.51
2017-10-09T09:31:11.315Z,956.47
2017-10-09T09:32:11.306Z,956.5
2017-10-09T09:33:11.297Z,956.48
2017-10-09T09:34:11.287Z,956.49
2017-10-09T09:35:11.279Z,956.47
2017-10-09T09:36:11.270Z,956.46
2017-10-09T09:37:11.261Z,956.48
2017-10-09T09:38:11.252Z,956.44
2017-10-09T09:39:11.254Z,956.46
2017-10-09T09:40:11.234Z,956.46
2017-10-09T09:41:11.225Z,956.46
2017-10-09T09:42:11.217Z,956.44
2017-10-09T09:43:11.207Z,956.46
2017-10-09T09:44:11.220Z,956.48
2017-10-09T09:45:11.189Z,956.56
2017-10-09T09:46:11.181Z,956.6
2017-10-09T09:47:11.172Z,956.6
2017-10-09T09:48:11.162Z,956.61
2017-10-09T09:49:11.153Z,956.59
2017-10-09T09:50:11.161Z,956.63
2017-10-09T09:51:11.134Z,956.66
2017-10-09T09:52:11.140Z,956.66
2017-10-09T09:53:11.115Z,956.68
2017-10-09T09:54:11.105Z,956.66
2017-10-09T09:55:11.096Z,956.66
2017-10-09T09:56:11.086Z,956.68
2017-10-09T09:57:11.081Z,956.67
2017-10-09T09:58:11.067Z,956.7
2017-10-09T09:59:11.078Z,956.67
2017-10-09T10:00:11.049Z,956.66
2017-10-09T10:01:11.038Z,956.69
2017-10-09T10:02:11.031Z,956.68
2017-10-09T10:03:11.020Z,956.69
2017-10-09T10:04:11.011Z,956.71
2017-10-09T10:05:11.018Z,956.7
2017-10-09T10:06:11.009Z,956.69
2017-10-09T10:07:10.981Z,956.72
2017-10-09T10:08:10.971Z,956.69
2017-10-09T10:09:10.967Z,956.7
2017-10-09T10:10:10.953Z,956.7
2017-10-09T10:11:10.943Z,956.73
2017-10-09T10:12:10.938Z,956.7
2017-10-09T10:13:11.095Z,956.74
2017-10-09T10:14:10.913Z,956.73
2017-10-09T10:15:10.957Z,956.7
2017-10-09T10:16:10.893Z,956.72
2017-10-09T10:17:10.883Z,956.71
2017-10-09T10:18:10.875Z,956.71
2017-10-09T10:19:10.865Z,956.75
2017-10-09T10:20:10.855Z,956.74
2017-10-09T10:21:10.844Z,956.77
2017-10-09T10:22:10.836Z,956.74
2017-10-09T10:23:10.826Z,956.75
2017-10-09T10:24:10.817Z,956.73
2017-10-09T10:25:10.806Z,956.67
2017-10-09T10:26:10.797Z,956.66
2017-10-09T10:27:10.787Z,956.64
2017-10-09T10:28:10.777Z,956.68
2017-10-09T10:29:10.771Z,956.71
2017-10-09T10:30:10.761Z,956.65
2017-10-09T10:31:10.750Z,956.68
2017-10-09T10:32:10.741Z,956.63
2017-10-09T10:33:10.736Z,956.65
2017-10-09T10:34:10.722Z,956.69
2017-10-09T10:35:10.713Z,956.65
2017-10-09T10:36:10.702Z,956.69
2017-10-09T10:37:10.694Z,956.64
2017-10-09T10:38:10.684Z,956.67
2017-10-09T10:39:10.875Z,956.66
2017-10-09T10:40:10.666Z,956.65
2017-10-09T10:41:10.656Z,956.62
2017-10-09T10:42:10.654Z,956.57
2017-10-09T10:43:10.637Z,956.55
2017-10-09T10:44:10.627Z,956.56
2017-10-09T10:45:10.617Z,956.57
2017-10-09T10:46:10.609Z,956.57
2017-10-09T10:47:10.608Z,956.57
2017-10-09T10:48:10.590Z,956.5
2017-10-09T10:49:10.579Z,956.51
2017-10-09T10:50:10.570Z,956.53
2017-10-09T10:51:10.561Z,956.52
2017-10-09T10:52:10.564Z,956.49
2017-10-09T10:53:10.542Z,956.51
2017-10-09T10:54:10.532Z,956.53
2017-10-09T10:55:10.525Z,956.52
2017-10-09T10:56:10.513Z,956.52
2017-10-09T10:57:10.504Z,956.54
2017-10-09T10:58:10.514Z,956.52
2017-10-09T10:59:10.488Z,956.52
2017-10-09T11:00:10.476Z,956.5
2017-10-09T11:01:10.467Z,956.48
2017-10-09T11:02:10.485Z,956.52
2017-10-09T11:03:10.449Z,956.55
2017-10-09T11:04:10.440Z,956.55
2017-10-09T11:05:10.433Z,956.51
2017-10-09T11:06:10.423Z,956.51
2017-10-09T11:07:10.413Z,956.47
2017-10-09T11:08:10.405Z,956.52
2017-10-09T11:09:10.397Z,956.51
2017-10-09T11:10:10.389Z,956.52
2017-10-09T11:11:10.378Z,956.49
2017-10-09T11:12:10.385Z,956.5
2017-10-09T11:13:10.362Z,956.49
2017-10-09T11:14:10.354Z,956.45
2017-10-09T11:15:10.344Z,956.43
2017-10-09T11:16:10.351Z,956.46
2017-10-09T11:17:10.328Z,956.41
2017-10-09T11:18:10.319Z,956.43
2017-10-09T11:19:10.310Z,956.43
2017-10-09T11:20:10.304Z,956.41
2017-10-09T11:21:10.293Z,956.37
2017-10-09T11:22:10.284Z,956.38
2017-10-09T11:23:10.277Z,956.38
2017-10-09T11:24:10.268Z,956.39
2017-10-09T11:25:10.271Z,956.4
2017-10-09T11:26:10.261Z,956.37
2017-10-09T11:27:10.242Z,956.35
2017-10-09T11:28:10.234Z,956.32
2017-10-09T11:29:10.225Z,956.29
2017-10-09T11:30:10.217Z,956.27
2017-10-09T11:31:10.209Z,956.29
2017-10-09T11:32:10.214Z,956.27
2017-10-09T11:33:10.192Z,956.29
2017-10-09T11:34:10.332Z,956.32
2017-10-09T11:35:10.175Z,956.28
2017-10-09T11:36:10.165Z,956.26
2017-10-09T11:37:10.157Z,956.3
2017-10-09T11:38:10.149Z,956.25
2017-10-09T11:39:10.139Z,956.27
2017-10-09T11:40:10.130Z,956.23
2017-10-09T11:41:10.122Z,956.23
2017-10-09T11:42:10.114Z,956.29
2017-10-09T11:43:10.105Z,956.25
2017-10-09T11:44:10.095Z,956.21
2017-10-09T11:45:10.089Z,956.22
2017-10-09T11:46:10.078Z,956.22
2017-10-09T11:47:10.069Z,956.18
2017-10-09T11:48:10.060Z,956.22
2017-10-09T11:49:10.052Z,956.16
2017-10-09T11:50:10.044Z,956.19
2017-10-09T11:51:10.072Z,956.16
2017-10-09T11:52:10.024Z,956.18
2017-10-09T11:53:10.017Z,956.14
2017-10-09T11:54:10.007Z,956.16
2017-10-09T11:55:09.998Z,956.14
2017-10-09T11:56:09.989Z,956.1
2017-10-09T11:57:09.982Z,956.1
2017-10-09T11:58:09.972Z,956.1
2017-10-09T11:59:09.963Z,956.11
2017-10-09T12:00:09.955Z,956.09
2017-10-09T12:01:09.963Z,956.11
2017-10-09T12:02:09.937Z,956.13
2017-10-09T12:03:09.929Z,956.09
2017-10-09T12:04:09.920Z,956.11
2017-10-09T12:05:09.912Z,956.08
2017-10-09T12:06:09.904Z,956.17
2017-10-09T12:07:09.896Z,956.14
2017-10-09T12:08:09.907Z,956.14
2017-10-09T12:09:09.879Z,956.12
2017-10-09T12:10:09.870Z,956.18
2017-10-09T12:11:09.862Z,956.12
2017-10-09T12:12:09.870Z,956.09
2017-10-09T12:13:09.844Z,956.08
2017-10-09T12:14:09.835Z,956.1
2017-10-09T12:15:09.828Z,956.04
2017-10-09T12:16:09.820Z,956.07
2017-10-09T12:17:09.810Z,956.01
2017-10-09T12:18:09.803Z,956.07
2017-10-09T12:19:09.795Z,956.04
2017-10-09T12:20:09.784Z,956
2017-10-09T12:21:09.778Z,956.04
2017-10-09T12:22:09.771Z,956.04
2017-10-09T12:23:09.762Z,956.07
2017-10-09T12:24:09.754Z,956.04
2017-10-09T12:25:09.746Z,956.03
2017-10-09T12:26:09.739Z,956.02
2017-10-09T12:27:09.730Z,956.04
2017-10-09T12:28:09.720Z,956.04
2017-10-09T12:29:09.714Z,956.02
2017-10-09T12:30:09.706Z,956.02
2017-10-09T12:31:09.698Z,955.96